createdAt,value
2023-04-20T00:01:10.886Z,8.80
2023-04-20T00:03:40.274Z,8.70
2023-04-20T00:06:09.609Z,8.70
2023-04-20T00:08:40.126Z,8.70
2023-04-20T00:11:09.342Z,8.70
2023-04-20T00:13:38.575Z,8.70
2023-04-20T00:16:08.047Z,8.70
2023-04-20T00:18:37.525Z,8.70
2023-04-20T00:21:07.662Z,8.60
2023-04-20T00:23:37.838Z,8.60
2023-04-20T00:26:08.628Z,8.60
2023-04-20T00:28:38.594Z,8.60
2023-04-20T00:31:09.928Z,8.60
2023-04-20T00:33:39.294Z,8.60
2023-04-20T00:36:10.836Z,8.50
2023-04-20T00:38:40.238Z,8.50
2023-04-20T00:41:11.222Z,8.50
2023-04-20T00:43:51.033Z,8.40
2023-04-20T00:46:20.438Z,8.40
2023-04-20T00:48:52.202Z,8.30
2023-04-20T00:51:23.541Z,8.30
2023-04-20T00:53:53.345Z,8.30
2023-04-20T00:56:24.299Z,8.20
2023-04-20T00:58:53.705Z,8.20
2023-04-20T01:01:23.528Z,8.20
2023-04-20T01:03:52.921Z,8.20
2023-04-20T01:06:23.646Z,8.10
2023-04-20T01:08:55.968Z,8.10
2023-04-20T01:11:26.223Z,8.10
2023-04-20T01:13:55.530Z,8.10
2023-04-20T01:16:25.096Z,8.00
2023-04-20T01:18:54.661Z,8.00
2023-04-20T01:21:24.321Z,8.00
2023-04-20T01:23:56.028Z,7.90
2023-04-20T01:26:25.720Z,7.90
2023-04-20T01:28:54.919Z,7.80
2023-04-20T01:31:24.252Z,7.80
2023-04-20T01:33:53.476Z,7.80
2023-04-20T01:36:23.265Z,7.70
2023-04-20T01:38:52.926Z,7.70
2023-04-20T01:41:23.584Z,7.70
2023-04-20T01:43:52.699Z,7.70
2023-04-20T01:46:21.845Z,7.70
2023-04-20T01:48:50.914Z,7.60
2023-04-20T01:51:20.212Z,7.60
2023-04-20T01:53:49.391Z,7.60
2023-04-20T01:56:18.484Z,7.60
2023-04-20T01:58:48.987Z,7.60
2023-04-20T02:01:18.637Z,7.60
2023-04-20T02:03:49.484Z,7.50
2023-04-20T02:06:18.589Z,7.50
2023-04-20T02:08:47.825Z,7.50
2023-04-20T02:11:16.920Z,7.50
2023-04-20T02:13:46.027Z,7.50
2023-04-20T02:16:16.882Z,7.50
2023-04-20T02:18:47.208Z,7.50
2023-04-20T02:21:16.357Z,7.50
2023-04-20T02:23:45.456Z,7.40
2023-04-20T02:26:14.739Z,7.40
2023-04-20T02:28:43.975Z,7.40
2023-04-20T02:31:13.307Z,7.50
2023-04-20T02:33:44.457Z,7.40
2023-04-20T02:36:13.535Z,7.40
2023-04-20T02:38:43.105Z,7.40
2023-04-20T02:41:12.239Z,7.40
2023-04-20T02:43:41.426Z,7.40
2023-04-20T02:46:11.779Z,7.40
2023-04-20T02:48:40.931Z,7.30
2023-04-20T02:51:12.585Z,7.30
2023-04-20T02:53:46.113Z,7.30
2023-04-20T02:56:22.708Z,7.30
2023-04-20T02:58:57.363Z,7.30
2023-04-20T03:01:31.314Z,7.30
2023-04-20T03:04:07.359Z,7.30
2023-04-20T03:06:45.126Z,7.30
2023-04-20T03:09:19.132Z,7.30
2023-04-20T03:12:18.568Z,7.40
2023-04-20T03:14:50.828Z,7.40
2023-04-20T03:17:24.323Z,7.40
2023-04-20T03:19:53.647Z,7.40
2023-04-20T03:22:24.276Z,7.40
2023-04-20T03:24:57.345Z,7.40
2023-04-20T03:27:47.779Z,7.40
2023-04-20T03:30:17.628Z,7.40
2023-04-20T03:32:50.010Z,7.40
2023-04-20T03:35:20.889Z,7.40
2023-04-20T03:37:51.628Z,7.40
2023-04-20T03:40:20.916Z,7.40
2023-04-20T03:42:50.650Z,7.40
2023-04-20T03:45:19.976Z,7.40
2023-04-20T03:47:51.710Z,7.40
2023-04-20T03:50:20.993Z,7.40
2023-04-20T03:52:53.060Z,7.40
2023-04-20T03:55:23.173Z,7.40
2023-04-20T03:57:59.607Z,7.40
2023-04-20T04:00:33.997Z,7.30
2023-04-20T04:03:10.248Z,7.30
2023-04-20T04:05:39.866Z,7.30
2023-04-20T04:08:10.477Z,7.20
2023-04-20T04:10:40.065Z,7.10
2023-04-20T04:13:09.119Z,7.10
2023-04-20T04:15:39.156Z,7.00
2023-04-20T04:18:13.270Z,7.00
2023-04-20T04:20:44.049Z,6.90
2023-04-20T04:23:16.379Z,6.90
2023-04-20T04:25:52.214Z,6.90
2023-04-20T04:28:26.521Z,6.80
2023-04-20T04:31:06.124Z,6.70
2023-04-20T04:33:36.530Z,6.70
2023-04-20T04:36:07.607Z,6.70
2023-04-20T04:38:38.891Z,6.70
2023-04-20T04:41:08.415Z,6.70
2023-04-20T04:43:38.032Z,6.70
2023-04-20T04:46:30.736Z,6.70
2023-04-20T04:49:01.103Z,6.80
2023-04-20T04:51:31.725Z,6.80
2023-04-20T04:54:02.653Z,6.80
2023-04-20T04:56:31.872Z,6.80
2023-04-20T04:59:01.111Z,6.80
2023-04-20T05:01:30.371Z,6.80
2023-04-20T05:03:59.880Z,6.90
2023-04-20T05:06:29.091Z,6.90
2023-04-20T05:08:58.291Z,6.90
2023-04-20T05:11:29.031Z,6.90
2023-04-20T05:13:58.557Z,6.90
2023-04-20T05:16:27.973Z,6.90
2023-04-20T05:18:57.371Z,7.00
2023-04-20T05:21:27.072Z,7.00
2023-04-20T05:23:56.434Z,7.00
2023-04-20T05:26:25.802Z,7.00
2023-04-20T05:28:56.714Z,7.00
2023-04-20T05:31:26.424Z,7.00
2023-04-20T05:33:55.930Z,7.10
2023-04-20T05:36:25.220Z,7.10
2023-04-20T05:38:54.444Z,7.10
2023-04-20T05:41:27.058Z,7.20
2023-04-20T05:43:58.049Z,7.20
2023-04-20T05:46:27.647Z,7.20
2023-04-20T05:48:57.280Z,7.20
2023-04-20T05:51:29.149Z,7.30
2023-04-20T05:53:58.462Z,7.30
2023-04-20T05:56:28.219Z,7.30
2023-04-20T05:59:00.254Z,7.40
2023-04-20T06:01:29.675Z,7.50
2023-04-20T06:03:59.448Z,7.50
2023-04-20T06:06:28.950Z,7.50
2023-04-20T06:08:58.288Z,7.60
2023-04-20T06:11:27.529Z,7.70
2023-04-20T06:13:58.299Z,7.80
2023-04-20T06:16:27.741Z,7.80
2023-04-20T06:18:57.097Z,7.90
2023-04-20T06:21:26.932Z,7.90
2023-04-20T06:23:56.191Z,8.00
2023-04-20T06:26:26.033Z,8.10
2023-04-20T06:28:55.610Z,8.20
2023-04-20T06:31:26.441Z,8.30
2023-04-20T06:33:55.858Z,8.40
2023-04-20T06:36:25.327Z,8.40
2023-04-20T06:38:54.995Z,8.50
2023-04-20T06:41:24.453Z,8.60
2023-04-20T06:43:53.967Z,8.70
2023-04-20T06:46:23.827Z,8.80
2023-04-20T06:48:54.658Z,8.90
2023-04-20T06:51:24.345Z,9.00
2023-04-20T06:53:54.481Z,9.10
2023-04-20T06:56:23.805Z,9.20
2023-04-20T06:58:53.183Z,9.30
2023-04-20T07:01:22.442Z,9.40
2023-04-20T07:03:52.377Z,9.40
2023-04-20T07:06:23.271Z,9.50
2023-04-20T07:08:52.378Z,9.60
2023-04-20T07:11:21.896Z,9.70
2023-04-20T07:13:50.956Z,9.80
2023-04-20T07:16:20.339Z,9.90
2023-04-20T07:18:49.480Z,10.00
2023-04-20T07:21:19.079Z,10.20
2023-04-20T07:23:50.727Z,10.30
2023-04-20T07:26:20.001Z,10.40
2023-04-20T07:28:49.277Z,10.50
2023-04-20T07:31:18.738Z,10.70
2023-04-20T07:33:48.069Z,10.80
2023-04-20T07:36:17.570Z,11.00
2023-04-20T07:38:47.532Z,11.10
2023-04-20T07:41:18.149Z,11.30
2023-04-20T07:43:47.578Z,11.40
2023-04-20T07:46:21.890Z,11.50
2023-04-20T07:48:51.243Z,11.60
2023-04-20T07:51:20.769Z,11.80
2023-04-20T07:53:50.149Z,11.90
2023-04-20T07:56:21.077Z,12.00
2023-04-20T07:58:50.308Z,12.10
2023-04-20T08:01:24.125Z,12.20
2023-04-20T08:03:56.012Z,12.30
2023-04-20T08:06:25.608Z,12.40
2023-04-20T08:08:54.795Z,12.40
2023-04-20T08:11:26.994Z,12.40
2023-04-20T08:13:58.435Z,12.50
2023-04-20T08:16:27.907Z,12.50
2023-04-20T08:18:57.396Z,12.50
2023-04-20T08:21:28.740Z,12.50
2023-04-20T08:23:58.054Z,12.60
2023-04-20T08:26:28.790Z,12.60
2023-04-20T08:28:58.166Z,12.60
2023-04-20T08:31:27.883Z,12.60
2023-04-20T08:33:57.329Z,12.70
2023-04-20T08:36:28.143Z,12.70
2023-04-20T08:39:06.754Z,12.70
2023-04-20T08:41:37.586Z,12.70
2023-04-20T08:44:07.979Z,12.80
2023-04-20T08:46:39.308Z,12.80
2023-04-20T08:49:13.458Z,12.80
2023-04-20T08:51:43.686Z,12.80
2023-04-20T08:54:14.349Z,12.80
2023-04-20T08:56:46.581Z,12.80
2023-04-20T08:59:16.912Z,12.80
2023-04-20T09:01:46.490Z,12.80
2023-04-20T09:04:20.239Z,12.70
2023-04-20T09:06:51.311Z,12.70
2023-04-20T09:09:21.666Z,12.70
2023-04-20T09:12:03.528Z,12.70
2023-04-20T09:14:43.969Z,12.70
2023-04-20T09:17:14.608Z,12.60
2023-04-20T09:19:46.049Z,12.60
2023-04-20T09:22:15.432Z,12.70
2023-04-20T09:24:44.647Z,12.60
2023-04-20T09:27:18.988Z,12.60
2023-04-20T09:29:58.614Z,12.60
2023-04-20T09:32:29.430Z,12.50
2023-04-20T09:34:58.878Z,12.50
2023-04-20T09:37:28.664Z,12.40
2023-04-20T09:40:01.646Z,12.30
2023-04-20T09:42:37.244Z,12.30
2023-04-20T09:45:08.092Z,12.20
2023-04-20T09:47:41.732Z,12.20
2023-04-20T09:50:24.675Z,12.20
2023-04-20T09:52:57.132Z,12.20
2023-04-20T09:55:27.334Z,12.10
2023-04-20T09:57:58.927Z,12.10
2023-04-20T10:00:28.315Z,12.10
2023-04-20T10:02:58.031Z,12.10
2023-04-20T10:05:45.448Z,12.10
2023-04-20T10:08:14.862Z,12.10
2023-04-20T10:10:46.243Z,12.10
2023-04-20T10:13:19.524Z,12.10
2023-04-20T10:15:49.071Z,12.10
2023-04-20T10:18:20.305Z,12.10
2023-04-20T10:20:49.723Z,12.10
2023-04-20T10:23:20.112Z,12.10
2023-04-20T10:26:01.025Z,12.10
2023-04-20T10:28:41.951Z,12.10
2023-04-20T10:31:13.879Z,12.10
2023-04-20T10:33:53.803Z,12.00
2023-04-20T10:36:29.460Z,12.00
2023-04-20T10:39:00.556Z,12.00
2023-04-20T10:41:29.935Z,12.00
2023-04-20T10:44:09.955Z,12.00
2023-04-20T10:46:39.280Z,12.10
2023-04-20T10:49:09.089Z,12.10
2023-04-20T10:51:38.629Z,12.10
2023-04-20T10:54:09.875Z,12.10
2023-04-20T10:56:40.876Z,12.10
2023-04-20T10:59:13.632Z,12.10
2023-04-20T11:01:43.614Z,12.10
2023-04-20T11:04:14.494Z,12.10
2023-04-20T11:06:47.966Z,12.00
2023-04-20T11:09:21.741Z,12.00
2023-04-20T11:12:00.780Z,12.00
2023-04-20T11:14:32.528Z,12.10
2023-04-20T11:17:02.809Z,12.10
2023-04-20T11:19:33.770Z,12.10
2023-04-20T11:22:04.394Z,12.10
2023-04-20T11:24:35.092Z,12.10
2023-04-20T11:27:05.542Z,12.20
2023-04-20T11:29:38.247Z,12.20
2023-04-20T11:32:09.237Z,12.20
2023-04-20T11:34:40.254Z,12.20
2023-04-20T11:37:11.634Z,12.20
2023-04-20T11:39:41.273Z,12.20
2023-04-20T11:42:10.446Z,12.20
2023-04-20T11:44:41.255Z,12.20
2023-04-20T11:47:10.663Z,12.20
2023-04-20T11:49:40.231Z,12.20
2023-04-20T11:52:09.641Z,12.20
2023-04-20T11:54:39.072Z,12.20
2023-04-20T11:57:08.607Z,12.20
2023-04-20T11:59:37.984Z,12.20
2023-04-20T12:02:08.786Z,12.20
2023-04-20T12:04:39.099Z,12.20
2023-04-20T12:07:09.189Z,12.20
2023-04-20T12:09:38.515Z,12.20
2023-04-20T12:12:09.888Z,12.20
2023-04-20T12:14:39.025Z,12.20
2023-04-20T12:17:09.598Z,12.20
2023-04-20T12:19:38.941Z,12.20
2023-04-20T12:22:08.110Z,12.20
2023-04-20T12:24:37.185Z,12.20
2023-04-20T12:27:06.390Z,12.20
2023-04-20T12:29:35.990Z,12.20
2023-04-20T12:32:05.650Z,12.20
2023-04-20T12:34:36.639Z,12.20
2023-04-20T12:37:05.795Z,12.20
2023-04-20T12:39:34.984Z,12.20
2023-04-20T12:42:04.512Z,12.10
2023-04-20T12:44:33.850Z,12.20
2023-04-20T12:47:03.389Z,12.20
2023-04-20T12:49:33.746Z,12.20
2023-04-20T12:52:05.715Z,12.20
2023-04-20T12:54:36.678Z,12.30
2023-04-20T12:57:05.843Z,12.30
2023-04-20T12:59:35.380Z,12.40
2023-04-20T13:02:05.168Z,12.40
2023-04-20T13:04:36.502Z,12.40
2023-04-20T13:07:07.918Z,12.40
2023-04-20T13:09:36.823Z,12.50
2023-04-20T13:12:06.368Z,12.50
2023-04-20T13:14:35.520Z,12.50
2023-04-20T13:17:06.804Z,12.60
2023-04-20T13:19:36.148Z,12.60
2023-04-20T13:22:06.880Z,12.70
2023-04-20T13:24:36.552Z,12.70
2023-04-20T13:27:06.500Z,12.70
2023-04-20T13:29:35.773Z,12.70
2023-04-20T13:32:05.932Z,12.70
2023-04-20T13:34:35.334Z,12.70
2023-04-20T13:37:06.036Z,12.80
2023-04-20T13:39:35.306Z,12.80
2023-04-20T13:42:04.726Z,12.80
2023-04-20T13:44:35.189Z,12.90
2023-04-20T13:47:04.586Z,12.90
2023-04-20T13:49:33.872Z,13.00
2023-04-20T13:52:04.096Z,13.00
2023-04-20T13:54:34.968Z,13.00
2023-04-20T13:57:04.331Z,13.00
2023-04-20T13:59:33.391Z,13.10
2023-04-20T14:02:03.042Z,13.10
2023-04-20T14:04:32.281Z,13.10
2023-04-20T14:07:01.542Z,13.10
2023-04-20T14:09:32.378Z,13.10
2023-04-20T14:12:03.258Z,13.10
2023-04-20T14:14:32.483Z,13.10
2023-04-20T14:17:01.843Z,13.10
2023-04-20T14:19:31.965Z,13.10
2023-04-20T14:22:01.418Z,13.10
2023-04-20T14:24:30.933Z,13.10
2023-04-20T14:27:00.464Z,13.10
2023-04-20T14:29:31.282Z,13.10
2023-04-20T14:32:01.065Z,13.10
2023-04-20T14:34:30.495Z,13.20
2023-04-20T14:36:59.634Z,13.20
2023-04-20T14:39:28.895Z,13.30
2023-04-20T14:41:58.162Z,13.30
2023-04-20T14:44:27.431Z,13.40
2023-04-20T14:46:58.139Z,13.40
2023-04-20T14:49:27.327Z,13.40
2023-04-20T14:51:56.872Z,13.50
2023-04-20T14:54:26.050Z,13.50
2023-04-20T14:56:55.393Z,13.60
2023-04-20T14:59:26.365Z,13.80
2023-04-20T15:02:02.704Z,13.90
2023-04-20T15:04:33.184Z,14.00
2023-04-20T15:07:02.504Z,14.10
2023-04-20T15:09:32.633Z,14.10
2023-04-20T15:12:02.918Z,14.20
2023-04-20T15:14:32.030Z,14.20
2023-04-20T15:17:02.666Z,14.30
2023-04-20T15:19:31.894Z,14.40
2023-04-20T15:22:02.300Z,14.40
2023-04-20T15:24:32.879Z,14.50
2023-04-20T15:27:02.764Z,14.50
2023-04-20T15:29:33.627Z,14.50
2023-04-20T15:32:04.901Z,14.60
2023-04-20T15:34:34.014Z,14.60
2023-04-20T15:37:03.358Z,14.50
2023-04-20T15:39:32.563Z,14.50
2023-04-20T15:42:03.100Z,14.50
2023-04-20T15:44:32.355Z,14.40
2023-04-20T15:47:02.328Z,14.40
2023-04-20T15:49:32.857Z,14.40
2023-04-20T15:52:01.901Z,14.30
2023-04-20T15:54:31.055Z,14.30
2023-04-20T15:57:00.492Z,14.20
2023-04-20T15:59:29.751Z,14.20
2023-04-20T16:01:59.227Z,14.20
2023-04-20T16:04:28.685Z,14.10
2023-04-20T16:06:59.199Z,14.10
2023-04-20T16:09:28.608Z,14.10
2023-04-20T16:11:57.764Z,14.10
2023-04-20T16:14:27.007Z,14.10
2023-04-20T16:16:56.523Z,14.00
2023-04-20T16:19:26.397Z,14.00
2023-04-20T16:21:55.729Z,14.00
2023-04-20T16:24:26.329Z,14.00
2023-04-20T16:27:00.715Z,14.10
2023-04-20T16:29:30.137Z,14.00
2023-04-20T16:31:59.466Z,14.00
2023-04-20T16:34:30.510Z,14.00
2023-04-20T16:37:00.448Z,14.00
2023-04-20T16:39:31.029Z,14.00
2023-04-20T16:42:00.579Z,14.00
2023-04-20T16:44:29.991Z,14.00
2023-04-20T16:47:00.825Z,14.10
2023-04-20T16:49:30.762Z,14.00
2023-04-20T16:52:00.193Z,14.00
2023-04-20T16:54:30.911Z,14.10
2023-04-20T16:57:01.412Z,14.10
2023-04-20T16:59:30.563Z,14.10
2023-04-20T17:02:00.099Z,14.10
2023-04-20T17:04:29.808Z,14.10
2023-04-20T17:06:59.248Z,14.10
2023-04-20T17:09:29.785Z,14.10
2023-04-20T17:11:59.390Z,14.10
2023-04-20T17:14:28.453Z,14.10
2023-04-20T17:16:57.601Z,14.10
2023-04-20T17:19:26.767Z,14.10
2023-04-20T17:21:55.917Z,14.00
2023-04-20T17:24:25.037Z,14.00
2023-04-20T17:26:55.365Z,14.00
2023-04-20T17:29:24.505Z,14.00
2023-04-20T17:31:53.353Z,14.10
2023-04-20T17:34:23.211Z,14.00
2023-04-20T17:36:52.576Z,14.00
2023-04-20T17:39:22.477Z,14.00
2023-04-20T17:41:51.596Z,14.00
2023-04-20T17:44:22.328Z,14.00
2023-04-20T17:46:51.581Z,14.00
2023-04-20T17:49:20.898Z,14.00
2023-04-20T17:51:49.931Z,14.10
2023-04-20T17:54:21.855Z,14.00
2023-04-20T17:56:50.979Z,14.00
2023-04-20T17:59:19.956Z,14.10
2023-04-20T18:01:50.439Z,14.10
2023-04-20T18:04:20.407Z,14.00
2023-04-20T18:06:51.372Z,14.00
2023-04-20T18:09:20.483Z,14.00
2023-04-20T18:11:49.652Z,14.00
2023-04-20T18:14:19.245Z,14.00
2023-04-20T18:16:52.078Z,13.90
2023-04-20T18:19:21.242Z,13.90
2023-04-20T18:21:50.619Z,13.90
2023-04-20T18:24:20.428Z,13.90
2023-04-20T18:26:50.240Z,13.80
2023-04-20T18:29:19.623Z,13.80
2023-04-20T18:31:53.398Z,13.80
2023-04-20T18:34:23.022Z,13.70
2023-04-20T18:36:52.286Z,13.70
2023-04-20T18:39:21.383Z,13.70
2023-04-20T18:41:51.270Z,13.70
2023-04-20T18:44:21.107Z,13.60
2023-04-20T18:46:51.837Z,13.60
2023-04-20T18:49:21.364Z,13.60
2023-04-20T18:51:50.744Z,13.60
2023-04-20T18:54:20.144Z,13.60
2023-04-20T18:56:50.522Z,13.60
2023-04-20T18:59:20.264Z,13.60
2023-04-20T19:01:52.536Z,13.60
2023-04-20T19:04:22.226Z,13.60
2023-04-20T19:06:51.754Z,13.60
2023-04-20T19:09:20.972Z,13.60
2023-04-20T19:11:51.184Z,13.60
2023-04-20T19:14:20.760Z,13.60
2023-04-20T19:16:51.591Z,13.50
2023-04-20T19:19:20.877Z,13.60
2023-04-20T19:21:50.287Z,13.60
2023-04-20T19:24:20.066Z,13.50
2023-04-20T19:26:49.653Z,13.50
2023-04-20T19:29:18.974Z,13.60
2023-04-20T19:31:48.391Z,13.50
2023-04-20T19:34:19.415Z,13.60
2023-04-20T19:36:48.771Z,13.60
2023-04-20T19:39:18.113Z,13.60
2023-04-20T19:41:47.812Z,13.60
2023-04-20T19:44:17.664Z,13.60
2023-04-20T19:46:47.091Z,13.60
2023-04-20T19:49:16.564Z,13.60
2023-04-20T19:51:47.383Z,13.60
2023-04-20T19:54:17.534Z,13.60
2023-04-20T19:56:47.186Z,13.60
2023-04-20T19:59:16.632Z,13.60
2023-04-20T20:01:45.971Z,13.60
2023-04-20T20:04:15.278Z,13.60
2023-04-20T20:06:48.432Z,13.60
2023-04-20T20:09:21.587Z,13.60
2023-04-20T20:11:52.278Z,13.60
2023-04-20T20:14:21.544Z,13.60
2023-04-20T20:16:51.043Z,13.60
2023-04-20T20:19:24.538Z,13.60
2023-04-20T20:21:53.950Z,13.60
2023-04-20T20:24:25.196Z,13.60
2023-04-20T20:26:54.476Z,13.60
2023-04-20T20:29:24.110Z,13.60
2023-04-20T20:31:53.350Z,13.60
2023-04-20T20:34:22.721Z,13.60
2023-04-20T20:36:53.395Z,13.60
2023-04-20T20:39:24.168Z,13.60
2023-04-20T20:41:53.535Z,13.60
2023-04-20T20:44:23.056Z,13.60
2023-04-20T20:46:52.439Z,13.60
2023-04-20T20:49:22.063Z,13.60
2023-04-20T20:51:51.992Z,13.60
2023-04-20T20:54:21.332Z,13.60
2023-04-20T20:56:52.349Z,13.60
2023-04-20T20:59:21.747Z,13.70
2023-04-20T21:01:50.933Z,13.60
2023-04-20T21:04:20.130Z,13.70
2023-04-20T21:06:49.461Z,13.60
2023-04-20T21:09:19.098Z,13.60
2023-04-20T21:11:48.376Z,13.70
2023-04-20T21:14:19.052Z,13.70
2023-04-20T21:16:48.397Z,13.70
2023-04-20T21:19:17.744Z,13.60
2023-04-20T21:21:47.033Z,13.60
2023-04-20T21:24:16.308Z,13.60
2023-04-20T21:26:45.559Z,13.60
2023-04-20T21:29:14.753Z,13.60
2023-04-20T21:31:45.433Z,13.60
2023-04-20T21:34:14.862Z,13.60
2023-04-20T21:36:44.184Z,13.60
2023-04-20T21:39:13.750Z,13.60
2023-04-20T21:41:44.128Z,13.60
2023-04-20T21:44:13.601Z,13.60
2023-04-20T21:46:42.847Z,13.60
2023-04-20T21:49:13.405Z,13.60
2023-04-20T21:51:42.615Z,13.60
2023-04-20T21:54:12.335Z,13.60
2023-04-20T21:56:41.579Z,13.60
2023-04-20T21:59:10.839Z,13.70
2023-04-20T22:01:40.069Z,13.60
2023-04-20T22:04:10.525Z,13.70
2023-04-20T22:06:41.162Z,13.60
2023-04-20T22:09:10.572Z,13.70
2023-04-20T22:11:40.461Z,13.70
2023-04-20T22:14:09.920Z,13.70
2023-04-20T22:16:39.180Z,13.70
2023-04-20T22:19:08.504Z,13.70
2023-04-20T22:21:37.701Z,13.70
2023-04-20T22:24:08.696Z,13.70
2023-04-20T22:26:37.996Z,13.70
2023-04-20T22:29:07.063Z,13.70
2023-04-20T22:31:36.326Z,13.70
2023-04-20T22:34:05.780Z,13.80
2023-04-20T22:36:35.125Z,13.70
2023-04-20T22:39:04.474Z,13.70
2023-04-20T22:41:35.713Z,13.70
2023-04-20T22:44:04.794Z,13.70
2023-04-20T22:46:34.032Z,13.70
2023-04-20T22:49:04.245Z,13.70
2023-04-20T22:51:33.491Z,13.70
2023-04-20T22:54:02.838Z,13.70
2023-04-20T22:56:32.123Z,13.70
2023-04-20T22:59:02.536Z,13.70
2023-04-20T23:01:31.692Z,13.70
2023-04-20T23:04:01.187Z,13.70
2023-04-20T23:06:31.576Z,13.70
2023-04-20T23:09:00.796Z,13.70
2023-04-20T23:11:29.934Z,13.70
2023-04-20T23:13:59.219Z,13.70
2023-04-20T23:16:29.931Z,13.70
2023-04-20T23:18:59.391Z,13.70
2023-04-20T23:21:28.856Z,13.80
2023-04-20T23:23:58.265Z,13.80
2023-04-20T23:26:27.364Z,13.80
2023-04-20T23:28:56.595Z,13.80
2023-04-20T23:31:26.094Z,13.80
2023-04-20T23:33:56.587Z,13.80
2023-04-20T23:36:26.319Z,13.80
2023-04-20T23:38:55.462Z,13.80
2023-04-20T23:41:24.661Z,13.80
2023-04-20T23:43:53.893Z,13.80
2023-04-20T23:46:23.871Z,13.90
2023-04-20T23:48:55.349Z,13.90
2023-04-20T23:51:26.122Z,13.90
2023-04-20T23:53:55.677Z,13.80
2023-04-20T23:56:24.778Z,13.80
2023-04-20T23:58:53.920Z,13.80
